Terminal Aerodrome Forecast
Issued by NWS

Home | Current Version | Previous Version | Text Only | Print | Product List | Glossary On
Versions: 1 2 3 4 5 6 7 8 9 10 11 12 13 14 15 16 17
000
FTUS45 KPSR 250500
TAFIWA
TAF
KIWA 250520Z 2506/2606 13008KT P6SM SCT250
     FM251600 19007KT P6SM SCT220
     FM252000 23012G22KT P6SM BKN220
      AMD LTD TO CLD VIS AND WIND TIL 251300=

USA.gov is the U.S. government's official web portal to all federal, state and local government web resources and services.